sensor_id;sensor_type;location;lat;lon;timestamp;P1;durP1;ratioP1;P2;durP2;ratioP2
58621;SDS011;44389;51.578;5.456;2022-08-21T00:01:21;16.58;;;10.05;;
58621;SDS011;44389;51.578;5.456;2022-08-21T00:06:14;12.70;;;9.43;;
58621;SDS011;44389;51.578;5.456;2022-08-21T00:08:39;12.65;;;9.57;;
58621;SDS011;44389;51.578;5.456;2022-08-21T00:11:05;14.57;;;9.82;;
58621;SDS011;44389;51.578;5.456;2022-08-21T00:13:31;12.60;;;9.77;;
58621;SDS011;44389;51.578;5.456;2022-08-21T00:15:57;12.45;;;9.43;;
58621;SDS011;44389;51.578;5.456;2022-08-21T00:18:23;13.30;;;9.55;;
58621;SDS011;44389;51.578;5.456;2022-08-21T00:20:48;10.95;;;9.52;;
58621;SDS011;44389;51.578;5.456;2022-08-21T00:23:14;13.77;;;10.30;;
58621;SDS011;44389;51.578;5.456;2022-08-21T00:25:40;13.52;;;10.32;;
58621;SDS011;44389;51.578;5.456;2022-08-21T00:28:08;14.73;;;10.68;;
58621;SDS011;44389;51.578;5.456;2022-08-21T00:30:34;14.73;;;10.68;;
58621;SDS011;44389;51.578;5.456;2022-08-21T00:32:59;13.20;;;10.68;;
58621;SDS011;44389;51.578;5.456;2022-08-21T00:35:27;16.50;;;12.48;;
58621;SDS011;44389;51.578;5.456;2022-08-21T00:37:57;16.30;;;11.45;;
58621;SDS011;44389;51.578;5.456;2022-08-21T00:40:24;16.10;;;12.82;;
58621;SDS011;44389;51.578;5.456;2022-08-21T00:42:52;13.57;;;11.25;;
58621;SDS011;44389;51.578;5.456;2022-08-21T00:45:18;14.50;;;11.43;;
58621;SDS011;44389;51.578;5.456;2022-08-21T00:47:43;13.25;;;10.80;;
58621;SDS011;44389;51.578;5.456;2022-08-21T00:50:09;12.80;;;11.38;;
58621;SDS011;44389;51.578;5.456;2022-08-21T00:52:35;15.27;;;12.40;;
58621;SDS011;44389;51.578;5.456;2022-08-21T00:55:02;15.27;;;11.60;;
58621;SDS011;44389;51.578;5.456;2022-08-21T00:57:30;14.73;;;10.60;;
58621;SDS011;44389;51.578;5.456;2022-08-21T01:00:01;14.30;;;11.52;;
58621;SDS011;44389;51.578;5.456;2022-08-21T01:02:29;13.70;;;11.73;;
58621;SDS011;44389;51.578;5.456;2022-08-21T01:04:55;14.65;;;10.85;;
58621;SDS011;44389;51.578;5.456;2022-08-21T01:07:20;16.08;;;11.70;;
58621;SDS011;44389;51.578;5.456;2022-08-21T01:09:46;16.35;;;11.07;;
58621;SDS011;44389;51.578;5.456;2022-08-21T01:12:12;15.35;;;11.35;;
58621;SDS011;44389;51.578;5.456;2022-08-21T01:14:39;14.10;;;11.05;;
58621;SDS011;44389;51.578;5.456;2022-08-21T01:17:07;13.23;;;11.18;;
58621;SDS011;44389;51.578;5.456;2022-08-21T01:19:33;12.70;;;11.07;;
58621;SDS011;44389;51.578;5.456;2022-08-21T01:21:59;16.25;;;11.30;;
58621;SDS011;44389;51.578;5.456;2022-08-21T01:24:24;14.00;;;10.27;;
58621;SDS011;44389;51.578;5.456;2022-08-21T01:26:50;14.80;;;11.18;;
58621;SDS011;44389;51.578;5.456;2022-08-21T01:31:41;13.47;;;10.73;;
58621;SDS011;44389;51.578;5.456;2022-08-21T01:34:10;16.00;;;11.95;;
58621;SDS011;44389;51.578;5.456;2022-08-21T01:36:36;14.27;;;11.05;;
58621;SDS011;44389;51.578;5.456;2022-08-21T01:39:02;16.92;;;11.18;;
58621;SDS011;44389;51.578;5.456;2022-08-21T01:41:28;14.02;;;11.10;;
58621;SDS011;44389;51.578;5.456;2022-08-21T01:43:53;12.80;;;10.13;;
58621;SDS011;44389;51.578;5.456;2022-08-21T01:46:19;13.05;;;9.95;;
58621;SDS011;44389;51.578;5.456;2022-08-21T01:48:44;16.35;;;10.75;;
58621;SDS011;44389;51.578;5.456;2022-08-21T01:51:10;13.45;;;10.77;;
58621;SDS011;44389;51.578;5.456;2022-08-21T01:53:35;13.52;;;10.80;;
58621;SDS011;44389;51.578;5.456;2022-08-21T01:56:03;11.43;;;10.23;;
58621;SDS011;44389;51.578;5.456;2022-08-21T01:58:31;13.38;;;10.45;;
58621;SDS011;44389;51.578;5.456;2022-08-21T02:00:56;15.25;;;10.30;;
58621;SDS011;44389;51.578;5.456;2022-08-21T02:03:22;13.48;;;11.10;;
58621;SDS011;44389;51.578;5.456;2022-08-21T02:05:47;13.98;;;10.60;;
58621;SDS011;44389;51.578;5.456;2022-08-21T02:08:12;13.32;;;10.20;;
58621;SDS011;44389;51.578;5.456;2022-08-21T02:10:38;15.70;;;10.68;;
58621;SDS011;44389;51.578;5.456;2022-08-21T02:13:03;11.18;;;9.98;;
58621;SDS011;44389;51.578;5.456;2022-08-21T02:15:29;14.73;;;10.60;;
58621;SDS011;44389;51.578;5.456;2022-08-21T02:17:56;13.35;;;10.20;;
58621;SDS011;44389;51.578;5.456;2022-08-21T02:20:47;13.30;;;10.85;;
58621;SDS011;44389;51.578;5.456;2022-08-21T02:23:10;12.63;;;10.43;;
58621;SDS011;44389;51.578;5.456;2022-08-21T02:25:36;12.90;;;9.63;;
58621;SDS011;44389;51.578;5.456;2022-08-21T02:28:07;14.75;;;10.25;;
58621;SDS011;44389;51.578;5.456;2022-08-21T02:30:36;12.20;;;9.30;;
58621;SDS011;44389;51.578;5.456;2022-08-21T02:33:04;11.55;;;9.48;;
58621;SDS011;44389;51.578;5.456;2022-08-21T02:35:31;16.20;;;9.98;;
58621;SDS011;44389;51.578;5.456;2022-08-21T02:38:00;13.40;;;10.23;;
58621;SDS011;44389;51.578;5.456;2022-08-21T02:40:29;16.10;;;11.60;;
58621;SDS011;44389;51.578;5.456;2022-08-21T02:42:56;17.85;;;13.57;;
58621;SDS011;44389;51.578;5.456;2022-08-21T02:45:23;15.50;;;11.18;;
58621;SDS011;44389;51.578;5.456;2022-08-21T02:47:49;15.07;;;11.73;;
58621;SDS011;44389;51.578;5.456;2022-08-21T02:50:20;16.77;;;12.25;;
58621;SDS011;44389;51.578;5.456;2022-08-21T02:52:51;13.73;;;11.57;;
58621;SDS011;44389;51.578;5.456;2022-08-21T02:55:18;15.60;;;12.32;;
58621;SDS011;44389;51.578;5.456;2022-08-21T03:00:10;11.02;;;9.82;;
58621;SDS011;44389;51.578;5.456;2022-08-21T03:02:37;13.35;;;10.57;;
58621;SDS011;44389;51.578;5.456;2022-08-21T03:05:04;15.50;;;10.43;;
58621;SDS011;44389;51.578;5.456;2022-08-21T03:07:30;12.73;;;11.00;;
58621;SDS011;44389;51.578;5.456;2022-08-21T03:09:56;12.38;;;10.10;;
58621;SDS011;44389;51.578;5.456;2022-08-21T03:12:21;10.55;;;9.45;;
58621;SDS011;44389;51.578;5.456;2022-08-21T03:14:47;16.38;;;9.68;;
58621;SDS011;44389;51.578;5.456;2022-08-21T03:17:12;14.57;;;11.25;;
58621;SDS011;44389;51.578;5.456;2022-08-21T03:19:37;16.67;;;12.10;;
58621;SDS011;44389;51.578;5.456;2022-08-21T03:22:02;16.85;;;12.15;;
58621;SDS011;44389;51.578;5.456;2022-08-21T03:24:28;13.02;;;11.43;;
58621;SDS011;44389;51.578;5.456;2022-08-21T03:26:54;14.20;;;11.15;;
58621;SDS011;44389;51.578;5.456;2022-08-21T03:29:19;15.25;;;11.52;;
58621;SDS011;44389;51.578;5.456;2022-08-21T03:31:44;18.95;;;11.73;;
58621;SDS011;44389;51.578;5.456;2022-08-21T03:34:10;15.60;;;12.45;;
58621;SDS011;44389;51.578;5.456;2022-08-21T03:36:35;15.85;;;13.07;;
58621;SDS011;44389;51.578;5.456;2022-08-21T03:39:00;15.45;;;13.13;;
58621;SDS011;44389;51.578;5.456;2022-08-21T03:41:26;21.48;;;14.00;;
58621;SDS011;44389;51.578;5.456;2022-08-21T03:43:51;17.42;;;14.57;;
58621;SDS011;44389;51.578;5.456;2022-08-21T03:46:16;18.77;;;15.88;;
58621;SDS011;44389;51.578;5.456;2022-08-21T03:48:41;16.17;;;13.43;;
58621;SDS011;44389;51.578;5.456;2022-08-21T03:51:07;17.13;;;12.80;;
58621;SDS011;44389;51.578;5.456;2022-08-21T03:53:32;16.02;;;12.65;;
58621;SDS011;44389;51.578;5.456;2022-08-21T03:55:58;20.23;;;16.75;;
58621;SDS011;44389;51.578;5.456;2022-08-21T03:58:24;28.92;;;22.45;;
58621;SDS011;44389;51.578;5.456;2022-08-21T04:00:52;19.17;;;16.77;;
58621;SDS011;44389;51.578;5.456;2022-08-21T04:03:20;17.50;;;14.85;;
58621;SDS011;44389;51.578;5.456;2022-08-21T04:05:45;17.55;;;14.57;;
58621;SDS011;44389;51.578;5.456;2022-08-21T04:08:11;16.63;;;14.88;;
58621;SDS011;44389;51.578;5.456;2022-08-21T04:10:39;17.80;;;14.45;;
58621;SDS011;44389;51.578;5.456;2022-08-21T04:13:06;24.75;;;18.65;;
58621;SDS011;44389;51.578;5.456;2022-08-21T04:15:32;18.25;;;16.08;;
58621;SDS011;44389;51.578;5.456;2022-08-21T04:17:58;17.83;;;15.75;;
58621;SDS011;44389;51.578;5.456;2022-08-21T04:20:24;20.75;;;15.57;;
58621;SDS011;44389;51.578;5.456;2022-08-21T04:22:50;19.55;;;17.52;;
58621;SDS011;44389;51.578;5.456;2022-08-21T04:25:16;20.35;;;18.25;;
58621;SDS011;44389;51.578;5.456;2022-08-21T04:27:43;28.95;;;22.48;;
58621;SDS011;44389;51.578;5.456;2022-08-21T04:30:10;32.97;;;27.33;;
58621;SDS011;44389;51.578;5.456;2022-08-21T04:32:37;29.65;;;26.02;;
58621;SDS011;44389;51.578;5.456;2022-08-21T04:35:04;33.20;;;26.02;;
58621;SDS011;44389;51.578;5.456;2022-08-21T04:37:32;32.38;;;25.02;;
58621;SDS011;44389;51.578;5.456;2022-08-21T04:39:57;30.60;;;24.33;;
58621;SDS011;44389;51.578;5.456;2022-08-21T04:42:23;29.45;;;23.98;;
58621;SDS011;44389;51.578;5.456;2022-08-21T04:44:50;35.00;;;24.35;;
58621;SDS011;44389;51.578;5.456;2022-08-21T04:47:15;28.50;;;22.00;;
58621;SDS011;44389;51.578;5.456;2022-08-21T04:49:41;27.73;;;21.35;;
58621;SDS011;44389;51.578;5.456;2022-08-21T04:52:07;29.45;;;22.25;;
58621;SDS011;44389;51.578;5.456;2022-08-21T04:54:32;25.63;;;21.40;;
58621;SDS011;44389;51.578;5.456;2022-08-21T04:57:02;28.98;;;21.27;;
58621;SDS011;44389;51.578;5.456;2022-08-21T04:59:39;25.95;;;19.00;;
58621;SDS011;44389;51.578;5.456;2022-08-21T05:02:08;27.13;;;19.35;;
58621;SDS011;44389;51.578;5.456;2022-08-21T05:04:36;25.90;;;21.83;;
58621;SDS011;44389;51.578;5.456;2022-08-21T05:07:07;29.55;;;20.50;;
58621;SDS011;44389;51.578;5.456;2022-08-21T05:09:37;33.75;;;20.98;;
58621;SDS011;44389;51.578;5.456;2022-08-21T05:12:03;27.90;;;20.42;;
58621;SDS011;44389;51.578;5.456;2022-08-21T05:14:29;29.33;;;20.63;;
58621;SDS011;44389;51.578;5.456;2022-08-21T05:16:54;30.85;;;18.50;;
58621;SDS011;44389;51.578;5.456;2022-08-21T05:19:19;23.30;;;18.33;;
58621;SDS011;44389;51.578;5.456;2022-08-21T05:21:45;25.25;;;18.42;;
58621;SDS011;44389;51.578;5.456;2022-08-21T05:24:12;25.58;;;17.98;;
58621;SDS011;44389;51.578;5.456;2022-08-21T05:26:37;24.35;;;17.02;;
58621;SDS011;44389;51.578;5.456;2022-08-21T05:29:03;25.25;;;16.75;;
58621;SDS011;44389;51.578;5.456;2022-08-21T05:31:29;27.52;;;17.20;;
58621;SDS011;44389;51.578;5.456;2022-08-21T05:33:55;24.00;;;16.25;;
58621;SDS011;44389;51.578;5.456;2022-08-21T05:36:20;23.33;;;16.23;;
58621;SDS011;44389;51.578;5.456;2022-08-21T05:38:45;27.25;;;15.88;;
58621;SDS011;44389;51.578;5.456;2022-08-21T05:41:11;21.30;;;15.40;;
58621;SDS011;44389;51.578;5.456;2022-08-21T05:43:37;24.80;;;15.75;;
58621;SDS011;44389;51.578;5.456;2022-08-21T05:46:02;22.63;;;15.50;;
58621;SDS011;44389;51.578;5.456;2022-08-21T05:48:29;23.67;;;15.93;;
58621;SDS011;44389;51.578;5.456;2022-08-21T05:50:55;23.73;;;15.15;;
58621;SDS011;44389;51.578;5.456;2022-08-21T05:53:22;23.73;;;14.68;;
58621;SDS011;44389;51.578;5.456;2022-08-21T05:55:48;19.38;;;13.40;;
58621;SDS011;44389;51.578;5.456;2022-08-21T05:58:16;20.15;;;13.05;;
58621;SDS011;44389;51.578;5.456;2022-08-21T06:00:44;20.83;;;13.18;;
58621;SDS011;44389;51.578;5.456;2022-08-21T06:03:13;25.52;;;13.00;;
58621;SDS011;44389;51.578;5.456;2022-08-21T06:05:41;21.63;;;12.00;;
58621;SDS011;44389;51.578;5.456;2022-08-21T06:08:07;20.15;;;11.68;;
58621;SDS011;44389;51.578;5.456;2022-08-21T06:10:32;19.00;;;12.93;;
58621;SDS011;44389;51.578;5.456;2022-08-21T06:12:58;21.05;;;11.70;;
58621;SDS011;44389;51.578;5.456;2022-08-21T06:15:23;19.15;;;11.57;;
58621;SDS011;44389;51.578;5.456;2022-08-21T06:17:49;17.83;;;10.98;;
58621;SDS011;44389;51.578;5.456;2022-08-21T06:20:14;21.63;;;11.43;;
58621;SDS011;44389;51.578;5.456;2022-08-21T06:22:39;20.88;;;11.27;;
58621;SDS011;44389;51.578;5.456;2022-08-21T06:25:05;21.45;;;12.15;;
58621;SDS011;44389;51.578;5.456;2022-08-21T06:27:30;16.75;;;9.70;;
58621;SDS011;44389;51.578;5.456;2022-08-21T06:29:55;21.23;;;10.82;;
58621;SDS011;44389;51.578;5.456;2022-08-21T06:32:22;19.90;;;11.00;;
58621;SDS011;44389;51.578;5.456;2022-08-21T06:34:47;23.95;;;11.55;;
58621;SDS011;44389;51.578;5.456;2022-08-21T06:37:13;20.52;;;11.20;;
58621;SDS011;44389;51.578;5.456;2022-08-21T06:39:38;22.00;;;10.95;;
58621;SDS011;44389;51.578;5.456;2022-08-21T06:42:04;15.50;;;10.18;;
58621;SDS011;44389;51.578;5.456;2022-08-21T06:44:30;20.50;;;11.13;;
58621;SDS011;44389;51.578;5.456;2022-08-21T06:46:55;26.35;;;11.15;;
58621;SDS011;44389;51.578;5.456;2022-08-21T06:49:20;19.33;;;11.13;;
58621;SDS011;44389;51.578;5.456;2022-08-21T06:51:45;22.40;;;10.60;;
58621;SDS011;44389;51.578;5.456;2022-08-21T06:54:11;19.25;;;11.13;;
58621;SDS011;44389;51.578;5.456;2022-08-21T06:56:36;21.20;;;10.68;;
58621;SDS011;44389;51.578;5.456;2022-08-21T06:59:03;20.73;;;9.85;;
58621;SDS011;44389;51.578;5.456;2022-08-21T07:01:30;20.77;;;10.77;;
58621;SDS011;44389;51.578;5.456;2022-08-21T07:03:55;21.20;;;10.40;;
58621;SDS011;44389;51.578;5.456;2022-08-21T07:06:20;19.88;;;10.45;;
58621;SDS011;44389;51.578;5.456;2022-08-21T07:08:45;23.13;;;10.68;;
58621;SDS011;44389;51.578;5.456;2022-08-21T07:11:12;25.98;;;10.48;;
58621;SDS011;44389;51.578;5.456;2022-08-21T07:13:41;22.05;;;10.52;;
58621;SDS011;44389;51.578;5.456;2022-08-21T07:16:07;18.73;;;9.75;;
58621;SDS011;44389;51.578;5.456;2022-08-21T07:18:33;21.42;;;10.88;;
58621;SDS011;44389;51.578;5.456;2022-08-21T07:20:59;18.40;;;9.82;;
58621;SDS011;44389;51.578;5.456;2022-08-21T07:23:30;20.40;;;9.60;;
58621;SDS011;44389;51.578;5.456;2022-08-21T07:25:58;21.70;;;10.23;;
58621;SDS011;44389;51.578;5.456;2022-08-21T07:28:25;22.20;;;10.00;;
58621;SDS011;44389;51.578;5.456;2022-08-21T07:30:51;22.50;;;10.38;;
58621;SDS011;44389;51.578;5.456;2022-08-21T07:33:19;21.25;;;10.20;;
58621;SDS011;44389;51.578;5.456;2022-08-21T07:35:45;19.33;;;10.15;;
58621;SDS011;44389;51.578;5.456;2022-08-21T07:38:10;23.23;;;10.10;;
58621;SDS011;44389;51.578;5.456;2022-08-21T07:40:36;21.52;;;9.35;;
58621;SDS011;44389;51.578;5.456;2022-08-21T07:43:01;23.25;;;10.10;;
58621;SDS011;44389;51.578;5.456;2022-08-21T07:45:27;19.88;;;9.35;;
58621;SDS011;44389;51.578;5.456;2022-08-21T07:47:53;18.70;;;9.27;;
58621;SDS011;44389;51.578;5.456;2022-08-21T07:50:18;19.70;;;8.90;;
58621;SDS011;44389;51.578;5.456;2022-08-21T07:52:44;18.65;;;8.82;;
58621;SDS011;44389;51.578;5.456;2022-08-21T07:55:10;17.75;;;7.72;;
58621;SDS011;44389;51.578;5.456;2022-08-21T07:57:37;18.60;;;8.10;;
58621;SDS011;44389;51.578;5.456;2022-08-21T08:00:04;18.20;;;7.57;;
58621;SDS011;44389;51.578;5.456;2022-08-21T08:02:31;21.92;;;6.90;;
58621;SDS011;44389;51.578;5.456;2022-08-21T08:05:00;16.63;;;7.03;;
58621;SDS011;44389;51.578;5.456;2022-08-21T08:07:26;19.05;;;6.68;;
58621;SDS011;44389;51.578;5.456;2022-08-21T08:09:51;18.98;;;7.00;;
58621;SDS011;44389;51.578;5.456;2022-08-21T08:12:17;15.45;;;5.97;;
58621;SDS011;44389;51.578;5.456;2022-08-21T08:14:43;21.35;;;6.32;;
58621;SDS011;44389;51.578;5.456;2022-08-21T08:17:08;19.10;;;6.57;;
58621;SDS011;44389;51.578;5.456;2022-08-21T08:19:33;18.42;;;6.32;;
58621;SDS011;44389;51.578;5.456;2022-08-21T08:21:59;16.83;;;5.50;;
58621;SDS011;44389;51.578;5.456;2022-08-21T08:24:24;17.20;;;5.95;;
58621;SDS011;44389;51.578;5.456;2022-08-21T08:26:49;16.63;;;5.75;;
58621;SDS011;44389;51.578;5.456;2022-08-21T08:29:15;18.00;;;5.55;;
58621;SDS011;44389;51.578;5.456;2022-08-21T08:31:40;18.42;;;5.90;;
58621;SDS011;44389;51.578;5.456;2022-08-21T08:34:05;15.95;;;5.13;;
58621;SDS011;44389;51.578;5.456;2022-08-21T08:36:34;12.43;;;4.68;;
58621;SDS011;44389;51.578;5.456;2022-08-21T08:39:02;18.55;;;5.45;;
58621;SDS011;44389;51.578;5.456;2022-08-21T08:41:28;18.40;;;5.65;;
58621;SDS011;44389;51.578;5.456;2022-08-21T08:43:57;16.27;;;5.57;;
58621;SDS011;44389;51.578;5.456;2022-08-21T08:46:47;16.33;;;5.07;;
58621;SDS011;44389;51.578;5.456;2022-08-21T08:49:19;15.43;;;4.82;;
58621;SDS011;44389;51.578;5.456;2022-08-21T08:52:03;14.40;;;5.03;;
58621;SDS011;44389;51.578;5.456;2022-08-21T08:54:44;17.45;;;4.53;;
58621;SDS011;44389;51.578;5.456;2022-08-21T08:57:16;20.30;;;4.95;;
58621;SDS011;44389;51.578;5.456;2022-08-21T08:59:44;15.25;;;5.18;;
58621;SDS011;44389;51.578;5.456;2022-08-21T09:02:14;14.15;;;4.78;;
58621;SDS011;44389;51.578;5.456;2022-08-21T09:04:40;18.65;;;5.18;;
58621;SDS011;44389;51.578;5.456;2022-08-21T09:07:25;13.57;;;4.45;;
58621;SDS011;44389;51.578;5.456;2022-08-21T09:18:22;12.18;;;3.97;;
58621;SDS011;44389;51.578;5.456;2022-08-21T09:26:26;13.75;;;3.75;;
58621;SDS011;44389;51.578;5.456;2022-08-21T09:29:09;11.32;;;3.65;;
58621;SDS011;44389;51.578;5.456;2022-08-21T09:31:36;10.55;;;3.72;;
58621;SDS011;44389;51.578;5.456;2022-08-21T09:34:10;14.52;;;3.75;;
58621;SDS011;44389;51.578;5.456;2022-08-21T09:36:49;10.27;;;2.75;;
58621;SDS011;44389;51.578;5.456;2022-08-21T09:39:36;11.40;;;3.05;;
58621;SDS011;44389;51.578;5.456;2022-08-21T09:42:05;11.52;;;2.60;;
58621;SDS011;44389;51.578;5.456;2022-08-21T09:44:35;11.00;;;2.88;;
58621;SDS011;44389;51.578;5.456;2022-08-21T09:47:05;12.18;;;2.83;;
58621;SDS011;44389;51.578;5.456;2022-08-21T09:49:32;9.55;;;3.13;;
58621;SDS011;44389;51.578;5.456;2022-08-21T09:52:03;11.82;;;2.95;;
58621;SDS011;44389;51.578;5.456;2022-08-21T09:54:37;11.70;;;2.92;;
58621;SDS011;44389;51.578;5.456;2022-08-21T09:57:12;10.40;;;2.70;;
58621;SDS011;44389;51.578;5.456;2022-08-21T10:00:07;13.13;;;2.90;;
58621;SDS011;44389;51.578;5.456;2022-08-21T10:02:54;13.23;;;3.33;;
58621;SDS011;44389;51.578;5.456;2022-08-21T10:05:49;10.73;;;3.03;;
58621;SDS011;44389;51.578;5.456;2022-08-21T10:08:18;9.27;;;2.40;;
58621;SDS011;44389;51.578;5.456;2022-08-21T10:10:44;9.50;;;2.83;;
58621;SDS011;44389;51.578;5.456;2022-08-21T10:15:56;8.63;;;2.33;;
58621;SDS011;44389;51.578;5.456;2022-08-21T10:18:35;15.85;;;2.85;;
58621;SDS011;44389;51.578;5.456;2022-08-21T10:21:51;9.82;;;2.42;;
58621;SDS011;44389;51.578;5.456;2022-08-21T10:24:14;8.15;;;2.47;;
58621;SDS011;44389;51.578;5.456;2022-08-21T10:26:51;9.38;;;2.40;;
58621;SDS011;44389;51.578;5.456;2022-08-21T10:29:51;8.80;;;2.30;;
58621;SDS011;44389;51.578;5.456;2022-08-21T10:32:43;11.23;;;2.55;;
58621;SDS011;44389;51.578;5.456;2022-08-21T10:35:28;9.82;;;2.72;;
58621;SDS011;44389;51.578;5.456;2022-08-21T10:43:39;8.40;;;2.60;;
58621;SDS011;44389;51.578;5.456;2022-08-21T10:46:32;8.77;;;2.60;;
58621;SDS011;44389;51.578;5.456;2022-08-21T10:49:13;9.38;;;3.03;;
58621;SDS011;44389;51.578;5.456;2022-08-21T10:57:50;7.72;;;3.00;;
58621;SDS011;44389;51.578;5.456;2022-08-21T11:00:16;10.32;;;3.00;;
58621;SDS011;44389;51.578;5.456;2022-08-21T11:05:31;7.63;;;2.67;;
58621;SDS011;44389;51.578;5.456;2022-08-21T11:08:01;10.43;;;2.33;;
58621;SDS011;44389;51.578;5.456;2022-08-21T11:10:42;10.35;;;2.75;;
58621;SDS011;44389;51.578;5.456;2022-08-21T11:13:13;7.95;;;2.15;;
58621;SDS011;44389;51.578;5.456;2022-08-21T11:15:51;9.88;;;2.13;;
58621;SDS011;44389;51.578;5.456;2022-08-21T11:18:43;6.07;;;2.38;;
58621;SDS011;44389;51.578;5.456;2022-08-21T11:21:20;9.38;;;2.60;;
58621;SDS011;44389;51.578;5.456;2022-08-21T11:23:59;12.70;;;2.75;;
58621;SDS011;44389;51.578;5.456;2022-08-21T11:26:49;9.27;;;2.42;;
58621;SDS011;44389;51.578;5.456;2022-08-21T11:29:26;7.40;;;2.00;;
58621;SDS011;44389;51.578;5.456;2022-08-21T11:32:41;9.20;;;2.15;;
58621;SDS011;44389;51.578;5.456;2022-08-21T11:37:20;12.45;;;2.17;;
58621;SDS011;44389;51.578;5.456;2022-08-21T11:40:03;11.83;;;2.83;;
58621;SDS011;44389;51.578;5.456;2022-08-21T11:42:38;8.80;;;2.00;;
58621;SDS011;44389;51.578;5.456;2022-08-21T11:45:32;8.93;;;2.10;;
58621;SDS011;44389;51.578;5.456;2022-08-21T11:48:08;9.32;;;1.83;;
58621;SDS011;44389;51.578;5.456;2022-08-21T11:50:42;8.88;;;2.13;;
58621;SDS011;44389;51.578;5.456;2022-08-21T11:53:15;12.45;;;2.22;;
58621;SDS011;44389;51.578;5.456;2022-08-21T11:55:50;9.48;;;2.58;;
58621;SDS011;44389;51.578;5.456;2022-08-21T11:58:19;9.18;;;2.03;;
58621;SDS011;44389;51.578;5.456;2022-08-21T12:00:58;7.97;;;2.30;;
58621;SDS011;44389;51.578;5.456;2022-08-21T12:03:38;9.27;;;1.77;;
58621;SDS011;44389;51.578;5.456;2022-08-21T12:06:08;8.02;;;2.40;;
58621;SDS011;44389;51.578;5.456;2022-08-21T12:08:44;7.93;;;2.58;;
58621;SDS011;44389;51.578;5.456;2022-08-21T12:11:24;7.35;;;2.00;;
58621;SDS011;44389;51.578;5.456;2022-08-21T12:16:35;8.57;;;2.40;;
58621;SDS011;44389;51.578;5.456;2022-08-21T12:22:30;7.95;;;2.63;;
58621;SDS011;44389;51.578;5.456;2022-08-21T12:24:39;6.80;;;1.90;;
58621;SDS011;44389;51.578;5.456;2022-08-21T12:29:45;7.05;;;2.30;;
58621;SDS011;44389;51.578;5.456;2022-08-21T12:34:40;8.27;;;1.70;;
58621;SDS011;44389;51.578;5.456;2022-08-21T12:37:34;6.03;;;1.80;;
58621;SDS011;44389;51.578;5.456;2022-08-21T12:40:10;6.97;;;1.58;;
58621;SDS011;44389;51.578;5.456;2022-08-21T12:42:52;7.90;;;1.85;;
58621;SDS011;44389;51.578;5.456;2022-08-21T12:45:22;7.78;;;1.70;;
58621;SDS011;44389;51.578;5.456;2022-08-21T12:47:55;7.72;;;1.83;;
58621;SDS011;44389;51.578;5.456;2022-08-21T12:56:15;8.63;;;2.08;;
58621;SDS011;44389;51.578;5.456;2022-08-21T12:58:50;7.78;;;1.70;;
58621;SDS011;44389;51.578;5.456;2022-08-21T13:04:04;9.30;;;2.03;;
58621;SDS011;44389;51.578;5.456;2022-08-21T13:06:49;8.68;;;2.22;;
58621;SDS011;44389;51.578;5.456;2022-08-21T13:09:18;12.18;;;2.53;;
58621;SDS011;44389;51.578;5.456;2022-08-21T13:11:51;10.00;;;1.88;;
58621;SDS011;44389;51.578;5.456;2022-08-21T13:14:20;12.23;;;2.88;;
58621;SDS011;44389;51.578;5.456;2022-08-21T13:16:47;8.05;;;1.80;;
58621;SDS011;44389;51.578;5.456;2022-08-21T13:19:17;8.90;;;2.20;;
58621;SDS011;44389;51.578;5.456;2022-08-21T13:21:44;8.75;;;1.90;;
58621;SDS011;44389;51.578;5.456;2022-08-21T13:24:11;6.85;;;1.67;;
58621;SDS011;44389;51.578;5.456;2022-08-21T13:26:42;8.52;;;1.90;;
58621;SDS011;44389;51.578;5.456;2022-08-21T13:29:12;7.85;;;2.15;;
58621;SDS011;44389;51.578;5.456;2022-08-21T13:31:47;7.35;;;2.10;;
58621;SDS011;44389;51.578;5.456;2022-08-21T13:34:14;9.18;;;1.70;;
58621;SDS011;44389;51.578;5.456;2022-08-21T13:36:42;8.45;;;2.05;;
58621;SDS011;44389;51.578;5.456;2022-08-21T13:39:10;8.60;;;2.10;;
58621;SDS011;44389;51.578;5.456;2022-08-21T13:41:40;7.75;;;1.90;;
58621;SDS011;44389;51.578;5.456;2022-08-21T13:44:18;11.13;;;2.20;;
58621;SDS011;44389;51.578;5.456;2022-08-21T13:46:47;8.73;;;2.10;;
58621;SDS011;44389;51.578;5.456;2022-08-21T13:51:41;7.85;;;1.90;;
58621;SDS011;44389;51.578;5.456;2022-08-21T13:54:20;8.97;;;2.20;;
58621;SDS011;44389;51.578;5.456;2022-08-21T13:56:52;9.57;;;2.47;;
58621;SDS011;44389;51.578;5.456;2022-08-21T13:59:28;9.77;;;2.20;;
58621;SDS011;44389;51.578;5.456;2022-08-21T14:01:59;7.78;;;1.90;;
58621;SDS011;44389;51.578;5.456;2022-08-21T14:04:36;6.80;;;1.67;;
58621;SDS011;44389;51.578;5.456;2022-08-21T14:07:14;6.50;;;1.73;;
58621;SDS011;44389;51.578;5.456;2022-08-21T14:09:43;8.10;;;2.25;;
58621;SDS011;44389;51.578;5.456;2022-08-21T14:12:14;11.32;;;1.95;;
58621;SDS011;44389;51.578;5.456;2022-08-21T14:14:51;11.98;;;2.47;;
58621;SDS011;44389;51.578;5.456;2022-08-21T14:20:25;9.65;;;1.85;;
58621;SDS011;44389;51.578;5.456;2022-08-21T14:23:00;9.77;;;2.10;;
58621;SDS011;44389;51.578;5.456;2022-08-21T14:25:42;7.05;;;2.17;;
58621;SDS011;44389;51.578;5.456;2022-08-21T14:30:47;7.93;;;1.70;;
58621;SDS011;44389;51.578;5.456;2022-08-21T14:33:15;7.32;;;1.90;;
58621;SDS011;44389;51.578;5.456;2022-08-21T14:35:47;9.48;;;2.30;;
58621;SDS011;44389;51.578;5.456;2022-08-21T14:38:18;8.93;;;2.33;;
58621;SDS011;44389;51.578;5.456;2022-08-21T14:40:48;6.38;;;2.00;;
58621;SDS011;44389;51.578;5.456;2022-08-21T14:43:15;8.85;;;1.77;;
58621;SDS011;44389;51.578;5.456;2022-08-21T14:45:41;8.77;;;2.05;;
58621;SDS011;44389;51.578;5.456;2022-08-21T14:48:08;9.52;;;2.70;;
58621;SDS011;44389;51.578;5.456;2022-08-21T14:50:34;12.60;;;2.72;;
58621;SDS011;44389;51.578;5.456;2022-08-21T14:52:59;11.60;;;2.20;;
58621;SDS011;44389;51.578;5.456;2022-08-21T14:55:25;8.50;;;2.25;;
58621;SDS011;44389;51.578;5.456;2022-08-21T14:57:52;11.77;;;2.85;;
58621;SDS011;44389;51.578;5.456;2022-08-21T15:00:20;7.72;;;2.58;;
58621;SDS011;44389;51.578;5.456;2022-08-21T15:02:48;9.38;;;2.05;;
58621;SDS011;44389;51.578;5.456;2022-08-21T15:05:13;9.30;;;2.20;;
58621;SDS011;44389;51.578;5.456;2022-08-21T15:07:39;9.60;;;2.50;;
58621;SDS011;44389;51.578;5.456;2022-08-21T15:10:04;8.90;;;2.03;;
58621;SDS011;44389;51.578;5.456;2022-08-21T15:12:30;6.97;;;2.20;;
58621;SDS011;44389;51.578;5.456;2022-08-21T15:14:56;8.80;;;1.80;;
58621;SDS011;44389;51.578;5.456;2022-08-21T15:17:21;10.70;;;2.30;;
58621;SDS011;44389;51.578;5.456;2022-08-21T15:19:47;9.95;;;2.00;;
58621;SDS011;44389;51.578;5.456;2022-08-21T15:22:12;8.38;;;2.40;;
58621;SDS011;44389;51.578;5.456;2022-08-21T15:24:38;9.57;;;2.53;;
58621;SDS011;44389;51.578;5.456;2022-08-21T15:27:03;10.45;;;2.45;;
58621;SDS011;44389;51.578;5.456;2022-08-21T15:29:31;6.95;;;1.70;;
58621;SDS011;44389;51.578;5.456;2022-08-21T15:32:02;8.35;;;2.35;;
58621;SDS011;44389;51.578;5.456;2022-08-21T15:34:40;8.38;;;2.10;;
58621;SDS011;44389;51.578;5.456;2022-08-21T15:37:06;12.07;;;2.20;;
58621;SDS011;44389;51.578;5.456;2022-08-21T15:39:33;9.02;;;2.22;;
58621;SDS011;44389;51.578;5.456;2022-08-21T15:41:59;6.53;;;1.70;;
58621;SDS011;44389;51.578;5.456;2022-08-21T15:44:25;8.43;;;2.20;;
58621;SDS011;44389;51.578;5.456;2022-08-21T15:46:52;9.82;;;2.30;;
58621;SDS011;44389;51.578;5.456;2022-08-21T15:49:17;9.77;;;2.40;;
58621;SDS011;44389;51.578;5.456;2022-08-21T15:51:42;7.88;;;2.38;;